Time;durP1;ratioP1;P1;durP2;ratioP2;P2;SDS_P1;SDS_P2;PMS_P1;PMS_P2;Temp;Humidity;BMP_temperature;BMP_pressure;BME280_temperature;BME280_humidity;BME280_pressure;Samples;Min_cycle;Max_cycle;Signal;HPM_P1;HPM_P2
2023/07/02 00:00:29;;;;;;;2.28;2.08;;;;;;;-141.84;77.85;20956.19;4882669;29;20234;-73
2023/07/02 00:02:58;;;;;;;3.60;2.15;;;;;;;-141.84;77.11;20948.06;4899212;29;20265;-70
2023/07/02 00:05:27;;;;;;;3.45;2.30;;;;;;;-141.84;77.95;20919.59;4872831;29;20243;-72
2023/07/02 00:07:57;;;;;;;2.85;1.90;;;;;;;-141.84;78.54;20874.88;4872615;29;20333;-72
2023/07/02 00:10:25;;;;;;;2.42;2.22;;;;;;;-141.84;78.04;20911.47;4864254;29;20243;-73
2023/07/02 00:12:54;;;;;;;3.40;2.35;;;;;;;-141.84;78.51;20944.00;4901171;29;20266;-72
2023/07/02 00:15:22;;;;;;;2.50;1.98;;;;;;;-141.84;78.31;20927.72;4897475;29;20325;-71
2023/07/02 00:17:51;;;;;;;2.00;1.90;;;;;;;-141.84;78.35;20878.94;4890456;29;20703;-72
2023/07/02 00:20:20;;;;;;;3.47;2.20;;;;;;;-141.84;77.61;20905.38;4901171;29;20226;-70
2023/07/02 00:22:49;;;;;;;2.25;2.00;;;;;;;-141.84;78.57;20878.94;4910219;29;20244;-73
2023/07/02 00:25:19;;;;;;;2.65;2.28;;;;;;;-141.84;77.64;20939.94;4909972;29;20312;-72
2023/07/02 00:27:48;;;;;;;2.40;2.20;;;;;;;-141.84;77.78;20931.78;4906431;29;20231;-71
2023/07/02 00:30:16;;;;;;;2.20;2.10;;;;;;;-141.84;77.92;20946.03;4886664;29;20236;-70
2023/07/02 00:32:45;;;;;;;2.95;2.10;;;;;;;-141.84;76.05;20988.72;4895725;29;20309;-71
2023/07/02 00:35:13;;;;;;;2.20;2.00;;;;;;;-141.84;77.35;20988.72;4890153;29;20262;-73
2023/07/02 00:37:42;;;;;;;2.15;2.03;;;;;;;-141.84;78.18;20923.66;4904321;28;20312;-73
2023/07/02 00:40:11;;;;;;;2.95;1.90;;;;;;;-141.84;78.92;20903.34;4911478;28;20267;-72
2023/07/02 00:42:41;;;;;;;2.17;1.98;;;;;;;-141.84;77.82;20901.31;4889139;29;20270;-72
2023/07/02 00:45:10;;;;;;;2.60;2.40;;;;;;;-141.84;78.40;20921.63;4892287;29;20226;-73
2023/07/02 00:47:39;;;;;;;2.00;1.90;;;;;;;-141.84;78.28;20915.53;4892198;28;20246;-73
2023/07/02 00:50:09;;;;;;;2.67;2.10;;;;;;;-141.84;77.62;20970.41;4891823;28;20238;-72
2023/07/02 00:52:38;;;;;;;3.05;2.35;;;;;;;-141.84;77.67;20966.34;4886714;28;20305;-72
2023/07/02 00:55:08;;;;;;;2.20;2.03;;;;;;;-141.84;76.92;20956.19;4891383;29;20234;-73
2023/07/02 00:57:36;;;;;;;2.17;2.00;;;;;;;-141.84;77.02;20954.16;4891223;29;20258;-72
2023/07/02 01:00:07;;;;;;;2.30;2.10;;;;;;;-141.84;77.48;20954.16;4891566;29;20297;-72
2023/07/02 01:02:38;;;;;;;2.20;2.10;;;;;;;-141.84;77.06;20956.19;4893756;28;20757;-71
2023/07/02 01:05:07;;;;;;;2.05;1.77;;;;;;;-141.84;78.01;20925.69;4872874;29;20330;-71
2023/07/02 01:07:36;;;;;;;2.72;2.20;;;;;;;-141.84;78.46;20891.13;4870522;29;20235;-71
2023/07/02 01:10:05;;;;;;;2.38;2.17;;;;;;;-141.84;77.85;20935.88;4873041;29;20270;-71
2023/07/02 01:12:34;;;;;;;2.20;2.00;;;;;;;-141.84;78.18;20917.56;4888187;28;20332;-73
2023/07/02 01:15:07;;;;;;;2.13;2.00;;;;;;;-141.84;78.34;20931.78;4900025;29;20656;-72
2023/07/02 01:17:41;;;;;;;3.45;2.30;;;;;;;-141.84;78.08;20974.50;4891762;29;20246;-72
2023/07/02 01:20:13;;;;;;;2.20;2.10;;;;;;;-141.84;78.85;20905.38;4892884;29;20241;-71
2023/07/02 01:22:42;;;;;;;2.40;2.10;;;;;;;-141.84;79.54;20883.00;4897569;28;20749;-72
2023/07/02 01:25:10;;;;;;;2.35;2.00;;;;;;;-141.84;80.37;20870.81;4891790;28;20265;-71
2023/07/02 01:27:39;;;;;;;2.40;2.20;;;;;;;-141.84;80.01;20868.78;4892669;29;20231;-72
2023/07/02 01:30:09;;;;;;;2.30;2.10;;;;;;;-141.84;79.54;20897.25;4909697;28;20570;-73
2023/07/02 01:32:39;;;;;;;2.15;1.92;;;;;;;-141.84;80.16;20848.44;4905152;28;20270;-73
2023/07/02 01:35:10;;;;;;;2.97;2.10;;;;;;;-141.84;79.50;20866.75;4872297;29;20873;-72
2023/07/02 01:37:39;;;;;;;3.58;2.33;;;;;;;-141.84;80.22;20891.13;4872630;29;20852;-72
2023/07/02 01:40:09;;;;;;;3.60;2.42;;;;;;;-141.84;80.67;20850.47;4898204;28;20714;-72
2023/07/02 01:42:38;;;;;;;2.67;2.47;;;;;;;-141.84;80.54;20868.78;4891073;28;20690;-72
2023/07/02 01:45:08;;;;;;;2.40;2.13;;;;;;;-141.84;79.64;20866.75;4907994;29;20217;-72
2023/07/02 01:47:36;;;;;;;4.28;2.13;;;;;;;-141.84;78.92;20907.41;4889206;29;20242;-72
2023/07/02 01:50:06;;;;;;;2.25;2.05;;;;;;;-141.84;79.26;20848.44;4891250;29;20334;-72
2023/07/02 01:52:36;;;;;;;2.50;2.30;;;;;;;-141.84;79.77;20901.31;4882411;29;20267;-72
2023/07/02 01:55:05;;;;;;;2.78;2.58;;;;;;;-141.84;79.57;20872.84;4890147;29;20254;-73
2023/07/02 01:57:34;;;;;;;3.30;2.20;;;;;;;-141.84;79.54;20895.19;4891167;29;20266;-72
2023/07/02 02:00:03;;;;;;;4.40;2.40;;;;;;;-141.84;79.57;20885.03;4890571;29;20306;-72
2023/07/02 02:02:31;;;;;;;2.35;2.15;;;;;;;-141.84;78.08;20909.44;4893306;29;20321;-72
2023/07/02 02:05:00;;;;;;;2.88;2.65;;;;;;;-141.84;78.80;20893.16;4924472;28;20233;-72
2023/07/02 02:07:28;;;;;;;3.15;2.75;;;;;;;-141.84;77.02;20958.22;4921061;28;20226;-72
2023/07/02 02:09:58;;;;;;;2.83;2.00;;;;;;;-141.84;78.16;20927.72;4908886;28;20321;-72
2023/07/02 02:12:28;;;;;;;2.53;2.30;;;;;;;-141.84;78.41;20905.38;4901531;28;20226;-72
2023/07/02 02:14:56;;;;;;;2.60;2.40;;;;;;;-141.84;78.82;20917.56;4900760;29;20325;-73
2023/07/02 02:17:25;;;;;;;2.80;2.45;;;;;;;-141.84;78.88;20935.88;4890486;29;20203;-72
2023/07/02 02:19:53;;;;;;;3.10;2.30;;;;;;;-141.84;77.97;20915.53;4889856;28;20238;-71
2023/07/02 02:22:22;;;;;;;3.00;2.40;;;;;;;-141.84;78.08;20919.59;4883120;28;20246;-71
2023/07/02 02:24:50;;;;;;;2.58;2.38;;;;;;;-141.84;77.67;20911.47;4890023;29;20692;-72
2023/07/02 02:27:20;;;;;;;2.78;2.58;;;;;;;-141.84;78.89;20878.94;4890539;29;20226;-72
2023/07/02 02:29:49;;;;;;;3.40;2.40;;;;;;;-141.84;79.99;20817.94;4907456;28;20321;-72
2023/07/02 02:32:19;;;;;;;2.72;2.53;;;;;;;-141.84;80.48;20860.66;4902447;29;20654;-72
2023/07/02 02:34:48;;;;;;;2.53;2.33;;;;;;;-141.84;80.14;20878.94;4907502;29;20233;-74
2023/07/02 02:37:16;;;;;;;3.10;2.90;;;;;;;-141.84;78.92;20870.81;4908268;29;20233;-72
2023/07/02 02:39:45;;;;;;;2.58;2.38;;;;;;;-141.84;79.68;20872.84;4919103;28;20276;-72
2023/07/02 02:42:14;;;;;;;2.50;2.30;;;;;;;-141.84;78.07;20895.19;4907165;29;20265;-71
2023/07/02 02:44:44;;;;;;;2.70;2.50;;;;;;;-141.84;78.89;20915.53;4909230;29;20455;-73
2023/07/02 02:47:13;;;;;;;2.50;2.30;;;;;;;-141.84;79.17;20866.75;4908476;29;20698;-72
2023/07/02 02:49:41;;;;;;;3.13;2.05;;;;;;;-141.84;80.45;20854.53;4907891;29;20320;-61
2023/07/02 02:52:10;;;;;;;2.53;2.33;;;;;;;-141.84;79.92;20850.47;4909056;29;20257;-62
2023/07/02 02:54:39;;;;;;;2.70;2.50;;;;;;;-141.84;80.76;20828.13;4903653;29;20257;-62
2023/07/02 02:57:07;;;;;;;2.72;2.42;;;;;;;-141.84;80.95;20822.03;4908318;29;20245;-62
2023/07/02 02:59:36;;;;;;;2.75;2.55;;;;;;;-141.84;79.82;20848.44;4908720;29;20294;-62
2023/07/02 03:02:06;;;;;;;3.80;2.63;;;;;;;-141.84;79.38;20880.97;4913811;29;20316;-62
2023/07/02 03:04:39;;;;;;;2.58;2.25;;;;;;;-141.84;80.21;20858.59;4905329;28;20261;-61
2023/07/02 03:07:08;;;;;;;3.22;2.92;;;;;;;-141.84;78.11;20899.28;4908588;29;20241;-63
2023/07/02 03:09:36;;;;;;;2.83;2.50;;;;;;;-141.84;79.39;20846.41;4908079;28;20265;-62
2023/07/02 03:12:06;;;;;;;2.97;2.67;;;;;;;-141.84;80.07;20830.16;4907589;29;20285;-62
2023/07/02 03:14:35;;;;;;;3.13;2.88;;;;;;;-141.84;79.83;20838.28;4894259;28;21847;-62
2023/07/02 03:17:05;;;;;;;2.92;2.60;;;;;;;-141.84;79.03;20874.88;4889533;28;20325;-62
2023/07/02 03:19:33;;;;;;;2.53;2.33;;;;;;;-141.84;78.58;20899.28;4889352;29;20266;-63
2023/07/02 03:22:02;;;;;;;3.10;2.75;;;;;;;-141.84;79.19;20862.69;4889621;29;20289;-62
2023/07/02 03:24:31;;;;;;;2.83;2.63;;;;;;;-141.84;77.44;20864.72;4881228;29;20306;-61
2023/07/02 03:27:00;;;;;;;3.30;2.60;;;;;;;-141.84;78.50;20854.53;4889461;29;20214;-61
2023/07/02 03:29:28;;;;;;;2.70;2.50;;;;;;;-141.84;77.03;20925.69;4905233;28;20632;-61
2023/07/02 03:31:57;;;;;;;2.85;2.60;;;;;;;-141.84;78.30;20848.44;4907810;28;20250;-62
2023/07/02 03:34:27;;;;;;;3.17;2.60;;;;;;;-141.84;77.82;20860.66;4887669;28;20246;-62
2023/07/02 03:36:55;;;;;;;2.78;2.58;;;;;;;-141.84;76.60;20883.00;4889120;29;20322;-62
2023/07/02 03:39:24;;;;;;;3.25;2.50;;;;;;;-141.84;76.00;20911.47;4898310;28;20313;-62
2023/07/02 03:41:53;;;;;;;3.72;2.78;;;;;;;-141.84;76.04;20878.94;4886632;29;20238;-63
2023/07/02 03:44:22;;;;;;;2.60;2.40;;;;;;;-141.84;76.33;20880.97;4882747;29;20746;-60
2023/07/02 03:46:50;;;;;;;2.90;2.60;;;;;;;-141.84;76.38;20885.03;4889079;29;20325;-61
2023/07/02 03:49:19;;;;;;;3.10;2.90;;;;;;;-141.84;75.46;20885.03;4888503;29;20330;-61
2023/07/02 03:51:49;;;;;;;2.60;2.40;;;;;;;-141.84;74.74;20842.34;4888708;29;20313;-62
2023/07/02 03:54:17;;;;;;;3.88;2.42;;;;;;;-141.84;76.21;20838.28;4881253;29;20314;-63
2023/07/02 03:56:46;;;;;;;3.15;2.60;;;;;;;-141.84;75.07;20862.69;4889597;29;20218;-60
2023/07/02 03:59:15;;;;;;;2.58;2.38;;;;;;;-141.84;75.40;20850.47;4887734;29;20318;-61
2023/07/02 04:01:44;;;;;;;3.08;2.78;;;;;;;-141.84;75.08;20838.28;4875102;29;20317;-62
2023/07/02 04:04:12;;;;;;;2.75;2.50;;;;;;;-141.84;75.21;20838.28;4895304;28;20235;-64
2023/07/02 04:06:41;;;;;;;2.70;2.50;;;;;;;-141.84;75.17;20883.00;4886079;29;20250;-61
2023/07/02 04:09:11;;;;;;;2.83;2.60;;;;;;;-141.84;73.45;20907.41;4888752;29;20306;-62
2023/07/02 04:11:39;;;;;;;2.67;2.47;;;;;;;-141.84;74.01;20889.09;4891621;29;20592;-62
2023/07/02 04:14:08;;;;;;;2.50;2.30;;;;;;;-141.84;73.17;20923.66;4905376;28;20245;-61
2023/07/02 04:16:36;;;;;;;2.80;2.60;;;;;;;-141.84;72.16;20909.44;4880132;29;20238;-61
2023/07/02 04:19:05;;;;;;;2.72;2.53;;;;;;;-141.84;73.06;20923.66;4888865;29;20238;-61
2023/07/02 04:21:33;;;;;;;2.40;2.20;;;;;;;-141.84;73.73;20897.25;4889260;29;20320;-62
2023/07/02 04:24:02;;;;;;;3.15;2.70;;;;;;;-141.84;73.31;20919.59;4887590;29;20567;-63
2023/07/02 04:26:32;;;;;;;2.58;2.38;;;;;;;-141.84;71.43;20960.25;4882650;29;20527;-62
2023/07/02 04:29:21;;;;;;;2.67;2.45;;;;;;;-141.84;72.62;20870.81;4907474;29;20230;-62
2023/07/02 04:31:49;;;;;;;2.95;2.65;;;;;;;-141.84;71.04;20978.56;4906494;29;20237;-62
2023/07/02 04:34:21;;;;;;;3.95;3.20;;;;;;;-141.84;71.71;20972.47;4887645;29;20266;-63
2023/07/02 04:36:50;;;;;;;3.38;2.35;;;;;;;-141.84;71.92;20939.94;4892595;29;20237;-61
2023/07/02 04:39:21;;;;;;;2.92;2.63;;;;;;;-141.84;71.35;21000.91;4900599;29;20261;-62
2023/07/02 04:41:52;;;;;;;3.63;2.78;;;;;;;-141.84;71.78;20964.31;4892575;29;20258;-61
2023/07/02 04:44:22;;;;;;;2.80;2.60;;;;;;;-141.84;71.65;20998.88;4885218;29;20359;-62
2023/07/02 04:46:51;;;;;;;4.57;3.00;;;;;;;-141.84;70.77;20968.38;4892086;29;20245;-62
2023/07/02 04:49:19;;;;;;;2.92;2.70;;;;;;;-141.84;70.57;21013.13;4891511;29;20233;-61
2023/07/02 04:51:48;;;;;;;3.58;3.00;;;;;;;-141.84;70.50;21009.03;4890125;29;20230;-61
2023/07/02 04:54:16;;;;;;;3.42;2.90;;;;;;;-141.84;70.74;21007.00;4885018;29;20269;-64
2023/07/02 04:56:45;;;;;;;3.00;2.67;;;;;;;-141.84;71.13;20988.72;4892013;29;20302;-62
2023/07/02 04:59:15;;;;;;;3.60;3.30;;;;;;;-141.84;70.21;21045.63;4892027;29;20266;-62
2023/07/02 05:01:44;;;;;;;3.17;2.97;;;;;;;-141.84;70.41;21025.31;4894376;29;20253;-61
2023/07/02 05:04:13;;;;;;;3.05;2.85;;;;;;;-141.84;70.28;21061.91;4897411;29;20261;-62
2023/07/02 05:06:41;;;;;;;3.38;3.08;;;;;;;-141.84;69.94;21090.38;4887460;29;20638;-62
2023/07/02 05:09:10;;;;;;;6.70;3.70;;;;;;;-141.84;67.69;21183.88;4891436;29;20679;-62
2023/07/02 05:11:39;;;;;;;4.05;3.65;;;;;;;-141.84;67.88;21167.63;4895468;29;20337;-62
2023/07/02 05:14:07;;;;;;;4.88;3.80;;;;;;;-141.84;66.59;21212.34;4895436;29;20923;-62
2023/07/02 05:16:37;;;;;;;4.00;3.70;;;;;;;-141.84;67.10;21240.81;4883685;29;20276;-62
2023/07/02 05:19:06;;;;;;;3.83;3.50;;;;;;;-141.84;67.19;21179.81;4891256;29;20706;-62
2023/07/02 05:21:34;;;;;;;4.10;3.60;;;;;;;-141.84;65.58;21330.28;4891594;29;20790;-61
2023/07/02 05:24:03;;;;;;;3.67;3.38;;;;;;;-141.84;64.66;21375.00;4891077;29;20718;-62
2023/07/02 05:26:31;;;;;;;3.45;3.15;;;;;;;-141.84;64.17;21405.50;4884957;29;20274;-62
2023/07/02 05:29:00;;;;;;;4.88;3.72;;;;;;;-141.84;62.60;21433.97;4891086;29;20236;-62
2023/07/02 05:31:28;;;;;;;4.07;3.78;;;;;;;-141.84;63.30;21385.16;4903365;29;20678;-61
2023/07/02 05:33:58;;;;;;;4.60;4.00;;;;;;;-141.84;64.01;21377.03;4899841;29;20230;-61
2023/07/02 05:36:27;;;;;;;3.90;3.60;;;;;;;-141.84;63.45;21375.00;4883337;29;20231;-63
2023/07/02 05:38:56;;;;;;;4.57;3.70;;;;;;;-141.84;63.52;21385.16;4896175;29;20214;-63
2023/07/02 05:41:24;;;;;;;3.97;3.53;;;;;;;-141.84;63.00;21450.22;4894723;29;20219;-62
2023/07/02 05:43:53;;;;;;;4.28;3.88;;;;;;;-141.84;62.37;21523.44;4891498;29;20758;-61
2023/07/02 05:46:21;;;;;;;5.57;4.30;;;;;;;-141.84;61.32;21553.94;4883273;29;20742;-71
2023/07/02 05:48:50;;;;;;;4.50;4.10;;;;;;;-141.84;61.36;21503.09;4892769;29;20328;-73
2023/07/02 05:51:23;;;;;;;4.40;3.92;;;;;;;-141.84;62.33;21405.50;4892051;29;20351;-72
2023/07/02 05:53:52;;;;;;;4.90;4.50;;;;;;;-141.84;62.91;21381.09;4890135;29;20302;-72
2023/07/02 05:56:21;;;;;;;5.20;4.13;;;;;;;-141.84;64.44;21350.59;4883521;29;20265;-73
2023/07/02 05:58:50;;;;;;;5.20;4.35;;;;;;;-141.84;63.40;21399.41;4906300;28;20760;-72
2023/07/02 06:01:19;;;;;;;4.70;4.30;;;;;;;-141.84;63.71;21431.94;4909276;28;20260;-72
2023/07/02 06:03:49;;;;;;;5.07;4.78;;;;;;;-141.84;61.76;21484.78;4899404;28;20248;-72
2023/07/02 06:06:18;;;;;;;5.18;4.68;;;;;;;-141.84;59.70;21543.75;4902039;28;20831;-72
2023/07/02 06:08:48;;;;;;;5.20;4.55;;;;;;;-141.84;59.46;21610.84;4910422;28;20216;-72
2023/07/02 06:11:17;;;;;;;4.70;4.30;;;;;;;-141.84;59.38;21633.22;4910770;28;20230;-73
2023/07/02 06:13:45;;;;;;;5.30;4.90;;;;;;;-141.84;56.72;21647.47;4913575;29;20329;-72
2023/07/02 06:16:14;;;;;;;4.93;4.45;;;;;;;-141.84;57.46;21608.81;4890642;29;20284;-72
2023/07/02 06:18:42;;;;;;;5.00;4.60;;;;;;;-141.84;58.36;21549.84;4889789;29;20242;-72
2023/07/02 06:21:11;;;;;;;4.80;4.40;;;;;;;-141.84;58.20;21566.13;4890467;29;20731;-70
2023/07/02 06:23:43;;;;;;;4.50;4.15;;;;;;;-141.84;57.26;21647.47;4890003;29;20679;-72
2023/07/02 06:26:13;;;;;;;4.55;4.13;;;;;;;-141.84;55.68;21743.03;4890553;29;20281;-73
2023/07/02 06:28:42;;;;;;;3.78;3.47;;;;;;;-141.84;52.56;21797.94;4886938;29;20235;-72
2023/07/02 06:31:12;;;;;;;3.90;3.45;;;;;;;-141.84;52.41;21881.28;4900582;29;20318;-72
2023/07/02 06:33:42;;;;;;;4.03;3.60;;;;;;;-141.84;50.81;21980.94;4899534;29;20261;-73
2023/07/02 06:36:10;;;;;;;3.80;3.50;;;;;;;-141.84;49.40;22037.88;4906483;28;20293;-72
2023/07/02 06:38:41;;;;;;;3.92;3.53;;;;;;;-141.84;49.12;22107.00;4891268;28;20745;-73
2023/07/02 06:41:10;;;;;;;4.13;3.83;;;;;;;-141.84;49.42;22072.44;4895525;29;20239;-73
2023/07/02 06:43:39;;;;;;;4.65;3.67;;;;;;;-141.84;51.05;21960.59;4889970;29;20234;-72
2023/07/02 06:46:10;;;;;;;3.95;3.65;;;;;;;-141.84;51.59;21879.25;4889765;29;20226;-73
2023/07/02 06:48:39;;;;;;;3.92;3.55;;;;;;;-141.84;51.71;21848.75;4880412;29;20231;-72
2023/07/02 06:51:08;;;;;;;3.47;3.20;;;;;;;-141.84;51.73;21816.22;4886709;29;20214;-74
2023/07/02 06:53:37;;;;;;;3.65;3.28;;;;;;;-141.84;51.75;21812.16;4889492;29;20263;-71
2023/07/02 06:56:08;;;;;;;4.10;3.45;;;;;;;-141.84;51.59;21848.75;4888498;29;20777;-73
2023/07/02 06:58:37;;;;;;;3.40;3.08;;;;;;;-141.84;51.96;21877.22;4881926;29;20247;-73
2023/07/02 07:01:07;;;;;;;3.38;3.08;;;;;;;-141.84;52.10;21818.25;4889235;29;20479;-72
2023/07/02 07:03:36;;;;;;;3.28;3.08;;;;;;;-141.84;52.98;21826.41;4887611;29;20235;-74
2023/07/02 07:06:05;;;;;;;4.15;3.17;;;;;;;-141.84;53.29;21856.91;4889687;29;20219;-73
2023/07/02 07:08:34;;;;;;;3.25;3.00;;;;;;;-141.84;51.74;21915.88;4883401;29;20215;-73
2023/07/02 07:11:02;;;;;;;3.40;3.10;;;;;;;-141.84;53.13;21863.00;4888301;29;20325;-73
2023/07/02 07:13:31;;;;;;;3.33;2.92;;;;;;;-141.84;53.89;21854.88;4869609;29;20287;-71
2023/07/02 07:15:59;;;;;;;4.57;3.10;;;;;;;-141.84;52.52;21903.66;4887005;29;20247;-73
2023/07/02 07:18:29;;;;;;;2.88;2.67;;;;;;;-141.84;50.94;21944.34;4882545;29;20254;-75
2023/07/02 07:21:01;;;;;;;3.90;2.80;;;;;;;-141.84;50.38;22003.31;4890004;29;20305;-72
2023/07/02 07:23:29;;;;;;;2.47;2.28;;;;;;;-141.84;50.18;22003.31;4889795;29;20683;-72
2023/07/02 07:25:57;;;;;;;3.03;2.80;;;;;;;-141.84;49.59;22048.03;4888977;29;20330;-73
2023/07/02 07:28:26;;;;;;;3.10;2.80;;;;;;;-141.84;49.67;22121.25;4882033;29;20250;-73
2023/07/02 07:30:54;;;;;;;2.65;2.45;;;;;;;-141.84;49.15;22145.66;4888701;29;20341;-73
2023/07/02 07:33:23;;;;;;;3.03;2.83;;;;;;;-141.84;49.24;22196.50;4889091;29;20234;-74
2023/07/02 07:35:53;;;;;;;3.25;2.60;;;;;;;-141.84;49.19;22143.63;4889556;29;20248;-74
2023/07/02 07:38:22;;;;;;;2.65;2.30;;;;;;;-141.84;50.05;22127.34;4902589;28;20242;-73
2023/07/02 07:40:50;;;;;;;3.08;2.40;;;;;;;-141.84;50.29;22157.84;4900816;28;20325;-73
2023/07/02 07:43:19;;;;;;;3.25;2.33;;;;;;;-141.84;49.23;22243.25;4889239;29;20253;-72
2023/07/02 07:45:48;;;;;;;2.10;2.00;;;;;;;-141.84;45.99;22328.69;4882526;29;20262;-73
2023/07/02 07:48:16;;;;;;;2.72;2.10;;;;;;;-141.84;46.06;22336.81;4880771;29;20235;-70
2023/07/02 07:50:45;;;;;;;2.38;2.20;;;;;;;-141.84;45.46;22277.84;4868280;29;20295;-72
2023/07/02 07:53:15;;;;;;;2.45;2.25;;;;;;;-141.84;45.35;22312.41;4869933;29;20339;-73
2023/07/02 07:55:43;;;;;;;2.10;1.95;;;;;;;-141.84;45.29;22318.50;4872843;29;20326;-72
2023/07/02 07:58:12;;;;;;;3.90;2.35;;;;;;;-141.84;44.72;22292.06;4872837;29;20263;-73
2023/07/02 08:00:41;;;;;;;2.40;2.20;;;;;;;-141.84;45.41;22200.56;4871921;29;20944;-72
2023/07/02 08:03:10;;;;;;;2.47;2.28;;;;;;;-141.84;46.12;22151.75;4875507;29;20226;-71
2023/07/02 08:05:39;;;;;;;2.58;1.98;;;;;;;-141.84;46.55;22086.69;4889263;29;20214;-72
2023/07/02 08:08:08;;;;;;;2.67;1.90;;;;;;;-141.84;46.90;22048.03;4889233;29;20234;-72
2023/07/02 08:10:38;;;;;;;2.65;2.05;;;;;;;-141.84;47.05;22039.91;4884121;29;20281;-73
2023/07/02 08:13:06;;;;;;;3.88;2.03;;;;;;;-141.84;46.61;21985.00;4908767;29;20333;-72
2023/07/02 08:15:35;;;;;;;2.58;2.33;;;;;;;-141.84;46.64;22001.28;4898056;29;20267;-73
2023/07/02 08:18:04;;;;;;;3.10;2.35;;;;;;;-141.84;47.04;21960.59;4892798;29;20218;-71
2023/07/02 08:20:32;;;;;;;2.05;1.85;;;;;;;-141.84;46.54;22007.38;4886220;29;20431;-72
2023/07/02 08:23:01;;;;;;;2.50;2.05;;;;;;;-141.84;46.42;21962.63;4892129;29;20422;-72
2023/07/02 08:25:30;;;;;;;2.38;2.17;;;;;;;-141.84;47.54;21974.84;4892026;29;20258;-73
2023/07/02 08:28:00;;;;;;;4.03;2.05;;;;;;;-141.84;47.62;21985.00;4887777;29;20231;-73
2023/07/02 08:30:29;;;;;;;2.08;1.90;;;;;;;-141.84;47.21;22001.28;4849128;29;20738;-74
2023/07/02 08:32:57;;;;;;;2.35;2.15;;;;;;;-141.84;47.01;22001.28;4892836;29;20313;-73
2023/07/02 08:35:26;;;;;;;3.08;1.92;;;;;;;-141.84;47.63;21999.25;4892460;29;20602;-72
2023/07/02 08:37:54;;;;;;;2.80;2.30;;;;;;;-141.84;47.71;22035.84;4891910;29;20710;-73
2023/07/02 08:40:23;;;;;;;3.10;1.92;;;;;;;-141.84;46.88;22080.56;4897641;29;20778;-73
2023/07/02 08:42:51;;;;;;;3.70;2.20;;;;;;;-141.84;46.98;22090.75;4873627;29;20278;-73
2023/07/02 08:45:24;;;;;;;12.57;2.42;;;;;;;-141.84;46.55;22062.28;4873264;29;20315;-72
2023/07/02 08:47:56;;;;;;;4.15;2.10;;;;;;;-141.84;47.31;22011.44;4873676;29;20221;-74
2023/07/02 08:50:24;;;;;;;3.35;2.00;;;;;;;-141.84;48.36;21948.41;4867255;29;20241;-72
2023/07/02 08:52:55;;;;;;;2.80;2.08;;;;;;;-141.84;48.80;21928.06;4873536;29;20238;-75
2023/07/02 08:55:23;;;;;;;2.40;2.20;;;;;;;-141.84;48.72;21960.59;4873060;29;20778;-72
2023/07/02 08:57:55;;;;;;;2.33;2.15;;;;;;;-141.84;47.36;21936.19;4878739;29;20975;-71
2023/07/02 09:00:24;;;;;;;2.72;2.47;;;;;;;-141.84;48.38;21830.47;4888624;29;20561;-73
2023/07/02 09:02:53;;;;;;;2.83;2.15;;;;;;;-141.84;49.61;21777.59;4921462;28;20217;-73
2023/07/02 09:05:22;;;;;;;2.58;2.38;;;;;;;-141.84;49.54;21783.69;4910668;29;20206;-72
2023/07/02 09:07:52;;;;;;;2.60;2.40;;;;;;;-141.84;49.16;21873.16;4910563;29;20265;-71
2023/07/02 09:10:30;;;;;;;2.63;2.30;;;;;;;-141.84;49.44;21891.47;4903503;29;20709;-74
2023/07/02 09:13:06;;;;;;;4.45;2.80;;;;;;;-141.84;49.50;21917.91;4925815;28;20237;-74
2023/07/02 09:15:40;;;;;;;3.58;2.42;;;;;;;-141.84;49.13;21926.03;4915633;29;20268;-72
2023/07/02 09:18:19;;;;;;;4.65;2.60;;;;;;;-141.84;49.70;21871.13;4909237;29;20588;-72
2023/07/02 09:20:50;;;;;;;2.85;2.40;;;;;;;-141.84;49.91;21818.25;4909831;29;20292;-75
2023/07/02 09:23:19;;;;;;;4.38;2.83;;;;;;;-141.84;50.09;21789.78;4910761;29;20325;-73
2023/07/02 09:25:48;;;;;;;2.60;2.40;;;;;;;-141.84;50.32;21820.28;4909658;29;20324;-72
2023/07/02 09:28:22;;;;;;;2.70;2.50;;;;;;;-141.84;49.93;21869.09;4893942;29;20246;-67
2023/07/02 09:30:55;;;;;;;3.22;3.00;;;;;;;-141.84;48.91;21915.88;4889607;29;20722;-72
2023/07/02 09:33:25;;;;;;;3.92;2.97;;;;;;;-141.84;48.87;22015.50;4900649;29;20297;-72
2023/07/02 09:35:54;;;;;;;3.10;2.80;;;;;;;-141.84;46.21;22265.63;4908545;29;20356;-71
2023/07/02 09:38:23;;;;;;;4.72;3.08;;;;;;;-141.84;45.57;22373.41;4903187;28;20675;-68
2023/07/02 09:40:53;;;;;;;3.20;2.90;;;;;;;-141.84;45.55;22263.59;4917762;28;20313;-69
2023/07/02 09:43:23;;;;;;;3.30;2.80;;;;;;;-141.84;46.61;22247.34;4909407;29;20238;-68
2023/07/02 09:45:55;;;;;;;3.33;3.03;;;;;;;-141.84;47.44;22170.06;4908687;29;20309;-67
2023/07/02 09:48:26;;;;;;;3.17;2.75;;;;;;;-141.84;47.29;22143.63;4901756;29;20301;-68
2023/07/02 09:50:55;;;;;;;4.40;3.17;;;;;;;-141.84;46.91;22184.28;4909305;29;20234;-68
2023/07/02 09:53:23;;;;;;;3.22;3.00;;;;;;;-141.84;47.74;22143.63;4907955;28;20237;-67
2023/07/02 09:55:52;;;;;;;3.38;2.92;;;;;;;-141.84;48.98;22056.19;4908443;29;20313;-69
2023/07/02 09:58:21;;;;;;;3.92;3.30;;;;;;;-141.84;48.92;22031.78;4900434;29;20269;-69
2023/07/02 10:00:50;;;;;;;3.75;3.10;;;;;;;-141.84;49.00;21954.50;4898184;29;20611;-70
2023/07/02 10:03:30;;;;;;;3.78;3.22;;;;;;;-141.84;49.24;21936.19;4912238;29;20312;-69
2023/07/02 10:06:06;;;;;;;4.63;3.70;;;;;;;-141.84;50.14;22003.31;4907381;29;20241;-70
2023/07/02 10:08:35;;;;;;;4.35;3.95;;;;;;;-141.84;48.50;22039.91;4901244;29;22122;-69
2023/07/02 10:11:11;;;;;;;3.88;3.45;;;;;;;-141.84;48.77;22043.97;4907534;29;20242;-68
2023/07/02 10:13:39;;;;;;;4.13;3.83;;;;;;;-141.84;48.53;22141.59;4889507;29;20293;-70
2023/07/02 10:16:08;;;;;;;4.53;3.75;;;;;;;-141.84;47.74;22192.44;4906365;29;20300;-70
2023/07/02 10:18:38;;;;;;;5.85;3.97;;;;;;;-141.84;46.53;22283.94;4900733;29;20702;-67
2023/07/02 10:21:17;;;;;;;4.50;4.10;;;;;;;-141.84;45.12;22367.31;4907986;29;20301;-69
2023/07/02 10:23:45;;;;;;;4.55;4.10;;;;;;;-141.84;44.10;22408.00;4907121;29;20201;-68
2023/07/02 10:26:16;;;;;;;5.18;3.80;;;;;;;-141.84;43.60;22586.97;4904893;29;20346;-67
2023/07/02 10:28:57;;;;;;;6.15;4.53;;;;;;;-141.84;43.45;22645.94;4907332;29;20273;-67
2023/07/02 10:31:26;;;;;;;4.88;3.85;;;;;;;-141.84;43.11;22684.59;4907713;29;20741;-69
2023/07/02 10:33:56;;;;;;;6.13;4.40;;;;;;;-141.84;41.48;22660.19;4905130;29;20294;-68
2023/07/02 10:36:26;;;;;;;4.50;4.10;;;;;;;-141.84;41.53;22639.84;4900167;29;20658;-69
2023/07/02 10:39:01;;;;;;;4.53;3.67;;;;;;;-141.84;41.84;22690.69;4912627;28;20652;-69
2023/07/02 10:41:30;;;;;;;6.20;4.10;;;;;;;-141.84;41.94;22763.91;4924440;28;20248;-69
2023/07/02 10:44:07;;;;;;;5.88;4.13;;;;;;;-141.84;41.27;22806.63;4920062;28;20730;-68
2023/07/02 10:46:43;;;;;;;4.97;4.32;;;;;;;-141.84;41.50;22741.53;4899283;29;20642;-69
2023/07/02 10:49:13;;;;;;;4.80;4.28;;;;;;;-141.84;41.26;22741.53;4907062;29;20232;-69
2023/07/02 10:51:42;;;;;;;5.18;3.60;;;;;;;-141.84;41.79;22676.44;4905749;28;20374;-68
2023/07/02 10:54:11;;;;;;;5.10;4.60;;;;;;;-141.84;41.88;22570.69;4905931;29;20230;-69
2023/07/02 10:56:42;;;;;;;6.97;4.45;;;;;;;-141.84;43.09;22397.81;4901786;29;20277;-69
2023/07/02 10:59:10;;;;;;;7.50;4.47;;;;;;;-141.84;44.25;22216.81;4906854;29;20289;-68
2023/07/02 11:01:39;;;;;;;6.03;4.82;;;;;;;-141.84;45.61;22104.97;4909241;29;20404;-69
2023/07/02 11:04:07;;;;;;;5.63;5.05;;;;;;;-141.84;46.62;21972.81;4904356;28;20254;-69
2023/07/02 11:06:38;;;;;;;6.25;5.32;;;;;;;-141.84;47.36;21970.78;4882266;29;20238;-68
2023/07/02 11:09:18;;;;;;;5.70;5.15;;;;;;;-141.84;47.22;21980.94;4905247;29;20210;-69
2023/07/02 11:11:54;;;;;;;6.28;5.07;;;;;;;-141.84;46.71;22046.00;4912670;29;20240;-68
2023/07/02 11:14:31;;;;;;;6.20;5.20;;;;;;;-141.84;45.47;22129.38;4914353;28;20763;-68
2023/07/02 11:17:02;;;;;;;6.22;5.57;;;;;;;-141.84;45.34;22170.06;4906588;28;20344;-68
2023/07/02 11:19:31;;;;;;;7.72;5.32;;;;;;;-141.84;44.88;22233.09;4906116;28;20242;-69
2023/07/02 11:22:02;;;;;;;6.47;5.35;;;;;;;-141.84;45.56;22224.97;4906969;28;20266;-68
2023/07/02 11:24:33;;;;;;;8.43;6.00;;;;;;;-141.84;44.80;22271.72;4897512;28;20240;-69
2023/07/02 11:27:03;;;;;;;6.57;5.88;;;;;;;-141.84;44.88;22216.81;4906342;28;20206;-69